Impacts TAF Board
For situational awareness. Not to be used for flight planning purposes.
IDs:

KATL - Atlanta/Hartsfield-J, GA, US

Issued at 1633 UTC 03 Jun 2020
Updated at 1725 UTC 03 Jun 2020
Potential Impact None Slight Moderate High
Time<<04/06Z 04/07Z 04/08Z 04/09Z 04/10Z 04/11Z 04/12Z 04/13Z 04/14Z 04/15Z 04/16Z 04/17Z 04/18Z>>
Type PRVL PRVL PRVL PRVL PRVL PRVL PRVL PRVL PRVL PRVL PRVL PRVL
VIS >6 >6 >6 >6 >6 >6 >6 >6 >6 >6 >6 >6
CIG 250 250 250 250 250 250 250 250 250 100 100 100
Cover BKN BKN BKN BKN BKN BKN BKN BKN BKN BKN BKN BKN
FltCat VFR VFR VFR VFR VFR VFR VFR VFR VFR VFR VFR VFR
WX -- -- -- -- -- -- -- -- -- VCSH VCSH VCSH
WDir 220 220 220 220 220 220 220 220 220 200 200 200
WSpd 4 4 4 4 4 4 4 4 4 6 6 6
WGst -- -- -- -- -- -- -- -- -- -- -- --
Raw TAF
KATL 031633Z 0317/0418 28009KT P6SM SCT050 SCT250
  FM031800 24009KT P6SM VCSH BKN050 BKN250
  FM040100 22004KT P6SM SCT120 BKN250
  FM041500 20006KT P6SM VCSH SCT040 BKN100


METAR Board
Radar Display
Forecast Discussion
For situational awareness. Not to be used for flight planning purposes.